sensor_id;sensor_type;location;lat;lon;timestamp;P1;durP1;ratioP1;P2;durP2;ratioP2
36205;SDS011;22242;48.796;9.930;2024-03-08T00:01:54;34.60;;;16.88;;
36205;SDS011;22242;48.796;9.930;2024-03-08T00:04:21;31.17;;;16.55;;
36205;SDS011;22242;48.796;9.930;2024-03-08T00:06:48;32.70;;;16.08;;
36205;SDS011;22242;48.796;9.930;2024-03-08T00:09:15;33.63;;;16.45;;
36205;SDS011;22242;48.796;9.930;2024-03-08T00:11:42;31.90;;;15.45;;
36205;SDS011;22242;48.796;9.930;2024-03-08T00:14:09;31.05;;;14.95;;
36205;SDS011;22242;48.796;9.930;2024-03-08T00:16:36;30.00;;;14.40;;
36205;SDS011;22242;48.796;9.930;2024-03-08T00:19:05;31.10;;;15.43;;
36205;SDS011;22242;48.796;9.930;2024-03-08T00:21:31;27.75;;;14.02;;
36205;SDS011;22242;48.796;9.930;2024-03-08T00:23:58;27.33;;;14.95;;
36205;SDS011;22242;48.796;9.930;2024-03-08T00:26:25;29.30;;;14.07;;
36205;SDS011;22242;48.796;9.930;2024-03-08T00:28:52;27.88;;;13.88;;
36205;SDS011;22242;48.796;9.930;2024-03-08T00:31:19;30.25;;;14.50;;
36205;SDS011;22242;48.796;9.930;2024-03-08T00:33:46;25.92;;;14.25;;
36205;SDS011;22242;48.796;9.930;2024-03-08T00:36:14;25.30;;;13.05;;
36205;SDS011;22242;48.796;9.930;2024-03-08T00:38:41;29.33;;;15.30;;
36205;SDS011;22242;48.796;9.930;2024-03-08T00:41:08;26.88;;;13.98;;
36205;SDS011;22242;48.796;9.930;2024-03-08T00:43:35;25.67;;;13.73;;
36205;SDS011;22242;48.796;9.930;2024-03-08T00:46:01;29.15;;;14.48;;
36205;SDS011;22242;48.796;9.930;2024-03-08T00:48:28;32.95;;;14.55;;
36205;SDS011;22242;48.796;9.930;2024-03-08T00:50:56;26.95;;;14.30;;
36205;SDS011;22242;48.796;9.930;2024-03-08T00:53:24;27.98;;;14.27;;
36205;SDS011;22242;48.796;9.930;2024-03-08T00:55:51;30.60;;;14.70;;
36205;SDS011;22242;48.796;9.930;2024-03-08T00:58:18;29.85;;;14.90;;
36205;SDS011;22242;48.796;9.930;2024-03-08T01:00:44;29.30;;;14.20;;
36205;SDS011;22242;48.796;9.930;2024-03-08T01:03:11;29.92;;;14.77;;
36205;SDS011;22242;48.796;9.930;2024-03-08T01:05:38;29.67;;;14.45;;
36205;SDS011;22242;48.796;9.930;2024-03-08T01:08:05;29.33;;;15.27;;
36205;SDS011;22242;48.796;9.930;2024-03-08T01:10:34;28.52;;;14.13;;
36205;SDS011;22242;48.796;9.930;2024-03-08T01:13:02;27.58;;;14.10;;
36205;SDS011;22242;48.796;9.930;2024-03-08T01:15:29;30.85;;;15.10;;
36205;SDS011;22242;48.796;9.930;2024-03-08T01:17:55;34.15;;;15.65;;
36205;SDS011;22242;48.796;9.930;2024-03-08T01:20:22;31.85;;;17.02;;
36205;SDS011;22242;48.796;9.930;2024-03-08T01:22:49;26.67;;;14.27;;
36205;SDS011;22242;48.796;9.930;2024-03-08T01:25:17;30.70;;;14.43;;
36205;SDS011;22242;48.796;9.930;2024-03-08T01:27:45;31.35;;;14.35;;
36205;SDS011;22242;48.796;9.930;2024-03-08T01:30:12;30.63;;;14.98;;
36205;SDS011;22242;48.796;9.930;2024-03-08T01:32:41;33.03;;;16.40;;
36205;SDS011;22242;48.796;9.930;2024-03-08T01:35:09;32.40;;;15.05;;
36205;SDS011;22242;48.796;9.930;2024-03-08T01:37:36;32.45;;;15.25;;
36205;SDS011;22242;48.796;9.930;2024-03-08T01:40:03;31.05;;;15.10;;
36205;SDS011;22242;48.796;9.930;2024-03-08T01:42:30;33.10;;;16.05;;
36205;SDS011;22242;48.796;9.930;2024-03-08T01:44:58;28.00;;;14.15;;
36205;SDS011;22242;48.796;9.930;2024-03-08T01:47:25;29.60;;;15.15;;
36205;SDS011;22242;48.796;9.930;2024-03-08T01:49:52;30.85;;;15.02;;
36205;SDS011;22242;48.796;9.930;2024-03-08T01:52:19;30.05;;;15.23;;
36205;SDS011;22242;48.796;9.930;2024-03-08T01:54:48;33.33;;;15.93;;
36205;SDS011;22242;48.796;9.930;2024-03-08T01:57:16;31.92;;;14.80;;
36205;SDS011;22242;48.796;9.930;2024-03-08T01:59:43;29.10;;;15.68;;
36205;SDS011;22242;48.796;9.930;2024-03-08T02:02:11;29.88;;;15.25;;
36205;SDS011;22242;48.796;9.930;2024-03-08T02:04:41;31.52;;;15.45;;
36205;SDS011;22242;48.796;9.930;2024-03-08T02:07:07;33.85;;;16.63;;
36205;SDS011;22242;48.796;9.930;2024-03-08T02:09:34;37.70;;;16.17;;
36205;SDS011;22242;48.796;9.930;2024-03-08T02:12:01;29.55;;;14.65;;
36205;SDS011;22242;48.796;9.930;2024-03-08T02:14:32;31.48;;;15.18;;
36205;SDS011;22242;48.796;9.930;2024-03-08T02:17:00;28.45;;;14.30;;
36205;SDS011;22242;48.796;9.930;2024-03-08T02:19:28;31.77;;;15.57;;
36205;SDS011;22242;48.796;9.930;2024-03-08T02:21:56;30.45;;;14.60;;
36205;SDS011;22242;48.796;9.930;2024-03-08T02:24:24;32.65;;;15.10;;
36205;SDS011;22242;48.796;9.930;2024-03-08T02:26:51;32.00;;;15.63;;
36205;SDS011;22242;48.796;9.930;2024-03-08T02:29:18;30.30;;;15.05;;
36205;SDS011;22242;48.796;9.930;2024-03-08T02:31:46;34.47;;;16.05;;
36205;SDS011;22242;48.796;9.930;2024-03-08T02:34:13;30.45;;;15.40;;
36205;SDS011;22242;48.796;9.930;2024-03-08T02:36:40;29.55;;;14.70;;
36205;SDS011;22242;48.796;9.930;2024-03-08T02:39:08;29.77;;;16.05;;
36205;SDS011;22242;48.796;9.930;2024-03-08T02:41:35;28.75;;;14.80;;
36205;SDS011;22242;48.796;9.930;2024-03-08T02:44:02;31.15;;;15.38;;
36205;SDS011;22242;48.796;9.930;2024-03-08T02:46:30;34.03;;;16.30;;
36205;SDS011;22242;48.796;9.930;2024-03-08T02:48:56;33.17;;;15.52;;
36205;SDS011;22242;48.796;9.930;2024-03-08T02:51:23;31.58;;;16.50;;
36205;SDS011;22242;48.796;9.930;2024-03-08T02:53:51;30.98;;;16.27;;
36205;SDS011;22242;48.796;9.930;2024-03-08T02:56:19;35.03;;;16.85;;
36205;SDS011;22242;48.796;9.930;2024-03-08T02:58:47;35.50;;;16.77;;
36205;SDS011;22242;48.796;9.930;2024-03-08T03:01:13;32.85;;;14.95;;
36205;SDS011;22242;48.796;9.930;2024-03-08T03:03:40;37.65;;;18.17;;
36205;SDS011;22242;48.796;9.930;2024-03-08T03:06:07;30.95;;;16.00;;
36205;SDS011;22242;48.796;9.930;2024-03-08T03:08:35;36.35;;;16.88;;
36205;SDS011;22242;48.796;9.930;2024-03-08T03:11:01;33.58;;;16.23;;
36205;SDS011;22242;48.796;9.930;2024-03-08T03:13:30;39.35;;;17.60;;
36205;SDS011;22242;48.796;9.930;2024-03-08T03:15:57;36.30;;;18.38;;
36205;SDS011;22242;48.796;9.930;2024-03-08T03:18:23;32.00;;;16.52;;
36205;SDS011;22242;48.796;9.930;2024-03-08T03:20:52;36.40;;;17.45;;
36205;SDS011;22242;48.796;9.930;2024-03-08T03:23:19;32.05;;;15.18;;
36205;SDS011;22242;48.796;9.930;2024-03-08T03:25:46;35.20;;;16.35;;
36205;SDS011;22242;48.796;9.930;2024-03-08T03:28:13;44.13;;;17.77;;
36205;SDS011;22242;48.796;9.930;2024-03-08T03:30:44;35.05;;;16.13;;
36205;SDS011;22242;48.796;9.930;2024-03-08T03:33:11;34.92;;;15.55;;
36205;SDS011;22242;48.796;9.930;2024-03-08T03:35:40;33.40;;;17.30;;
36205;SDS011;22242;48.796;9.930;2024-03-08T03:38:08;33.17;;;15.98;;
36205;SDS011;22242;48.796;9.930;2024-03-08T03:40:35;35.58;;;18.15;;
36205;SDS011;22242;48.796;9.930;2024-03-08T03:43:03;36.97;;;17.20;;
36205;SDS011;22242;48.796;9.930;2024-03-08T03:45:30;34.72;;;16.73;;
36205;SDS011;22242;48.796;9.930;2024-03-08T03:48:01;36.50;;;17.15;;
36205;SDS011;22242;48.796;9.930;2024-03-08T03:50:29;36.95;;;17.60;;
36205;SDS011;22242;48.796;9.930;2024-03-08T03:52:56;37.83;;;19.08;;
36205;SDS011;22242;48.796;9.930;2024-03-08T03:55:24;37.38;;;16.83;;
36205;SDS011;22242;48.796;9.930;2024-03-08T03:57:51;36.63;;;17.67;;
36205;SDS011;22242;48.796;9.930;2024-03-08T04:00:18;34.92;;;17.77;;
36205;SDS011;22242;48.796;9.930;2024-03-08T04:02:45;36.53;;;17.63;;
36205;SDS011;22242;48.796;9.930;2024-03-08T04:05:13;35.35;;;18.08;;
36205;SDS011;22242;48.796;9.930;2024-03-08T04:07:40;37.92;;;17.20;;
36205;SDS011;22242;48.796;9.930;2024-03-08T04:10:08;41.05;;;22.27;;
36205;SDS011;22242;48.796;9.930;2024-03-08T04:12:36;35.53;;;17.60;;
36205;SDS011;22242;48.796;9.930;2024-03-08T04:15:04;35.25;;;18.10;;
36205;SDS011;22242;48.796;9.930;2024-03-08T04:17:32;36.90;;;17.02;;
36205;SDS011;22242;48.796;9.930;2024-03-08T04:20:01;38.10;;;17.85;;
36205;SDS011;22242;48.796;9.930;2024-03-08T04:22:34;39.00;;;17.88;;
36205;SDS011;22242;48.796;9.930;2024-03-08T04:25:01;34.17;;;17.27;;
36205;SDS011;22242;48.796;9.930;2024-03-08T04:27:28;36.72;;;16.77;;
36205;SDS011;22242;48.796;9.930;2024-03-08T04:29:55;36.95;;;18.63;;
36205;SDS011;22242;48.796;9.930;2024-03-08T04:32:22;39.80;;;18.73;;
36205;SDS011;22242;48.796;9.930;2024-03-08T04:34:49;39.03;;;18.48;;
36205;SDS011;22242;48.796;9.930;2024-03-08T04:37:15;40.80;;;19.20;;
36205;SDS011;22242;48.796;9.930;2024-03-08T04:39:47;40.97;;;19.00;;
36205;SDS011;22242;48.796;9.930;2024-03-08T04:42:14;42.67;;;18.70;;
36205;SDS011;22242;48.796;9.930;2024-03-08T04:44:43;40.22;;;18.23;;
36205;SDS011;22242;48.796;9.930;2024-03-08T04:47:10;36.65;;;18.40;;
36205;SDS011;22242;48.796;9.930;2024-03-08T04:49:36;44.13;;;19.45;;
36205;SDS011;22242;48.796;9.930;2024-03-08T04:52:03;35.80;;;18.50;;
36205;SDS011;22242;48.796;9.930;2024-03-08T04:54:32;37.45;;;18.27;;
36205;SDS011;22242;48.796;9.930;2024-03-08T04:57:00;39.42;;;18.67;;
36205;SDS011;22242;48.796;9.930;2024-03-08T04:59:27;38.08;;;18.75;;
36205;SDS011;22242;48.796;9.930;2024-03-08T05:01:54;43.80;;;18.92;;
36205;SDS011;22242;48.796;9.930;2024-03-08T05:04:21;38.38;;;17.90;;
36205;SDS011;22242;48.796;9.930;2024-03-08T05:06:48;36.25;;;17.92;;
36205;SDS011;22242;48.796;9.930;2024-03-08T05:09:15;40.10;;;19.65;;
36205;SDS011;22242;48.796;9.930;2024-03-08T05:11:44;39.75;;;17.75;;
36205;SDS011;22242;48.796;9.930;2024-03-08T05:14:13;39.90;;;17.95;;
36205;SDS011;22242;48.796;9.930;2024-03-08T05:16:41;37.08;;;17.88;;
36205;SDS011;22242;48.796;9.930;2024-03-08T05:19:08;37.25;;;18.23;;
36205;SDS011;22242;48.796;9.930;2024-03-08T05:21:35;39.65;;;18.73;;
36205;SDS011;22242;48.796;9.930;2024-03-08T05:24:02;37.88;;;17.42;;
36205;SDS011;22242;48.796;9.930;2024-03-08T05:26:30;35.67;;;17.15;;
36205;SDS011;22242;48.796;9.930;2024-03-08T05:28:58;32.63;;;16.45;;
36205;SDS011;22242;48.796;9.930;2024-03-08T05:31:26;33.90;;;16.85;;
36205;SDS011;22242;48.796;9.930;2024-03-08T05:33:53;39.92;;;18.27;;
36205;SDS011;22242;48.796;9.930;2024-03-08T05:36:21;34.10;;;17.00;;
36205;SDS011;22242;48.796;9.930;2024-03-08T05:38:48;40.08;;;18.27;;
36205;SDS011;22242;48.796;9.930;2024-03-08T05:41:15;35.42;;;18.13;;
36205;SDS011;22242;48.796;9.930;2024-03-08T05:43:43;34.03;;;17.20;;
36205;SDS011;22242;48.796;9.930;2024-03-08T05:46:10;36.13;;;18.10;;
36205;SDS011;22242;48.796;9.930;2024-03-08T05:48:38;41.40;;;18.75;;
36205;SDS011;22242;48.796;9.930;2024-03-08T05:51:05;36.80;;;17.38;;
36205;SDS011;22242;48.796;9.930;2024-03-08T05:53:32;36.55;;;17.70;;
36205;SDS011;22242;48.796;9.930;2024-03-08T05:55:59;38.90;;;18.17;;
36205;SDS011;22242;48.796;9.930;2024-03-08T05:58:27;38.47;;;19.00;;
36205;SDS011;22242;48.796;9.930;2024-03-08T06:00:56;37.35;;;18.27;;
36205;SDS011;22242;48.796;9.930;2024-03-08T06:03:23;35.47;;;17.40;;
36205;SDS011;22242;48.796;9.930;2024-03-08T06:05:51;34.78;;;17.17;;
36205;SDS011;22242;48.796;9.930;2024-03-08T06:08:18;36.40;;;17.58;;
36205;SDS011;22242;48.796;9.930;2024-03-08T06:10:45;36.00;;;17.48;;
36205;SDS011;22242;48.796;9.930;2024-03-08T06:13:14;36.20;;;16.08;;
36205;SDS011;22242;48.796;9.930;2024-03-08T06:15:41;38.92;;;17.70;;
36205;SDS011;22242;48.796;9.930;2024-03-08T06:18:08;34.08;;;17.42;;
36205;SDS011;22242;48.796;9.930;2024-03-08T06:20:36;35.10;;;16.92;;
36205;SDS011;22242;48.796;9.930;2024-03-08T06:23:05;36.05;;;17.88;;
36205;SDS011;22242;48.796;9.930;2024-03-08T06:25:31;32.53;;;16.52;;
36205;SDS011;22242;48.796;9.930;2024-03-08T06:27:59;34.42;;;17.02;;
36205;SDS011;22242;48.796;9.930;2024-03-08T06:30:26;34.40;;;16.48;;
36205;SDS011;22242;48.796;9.930;2024-03-08T06:32:53;36.28;;;17.50;;
36205;SDS011;22242;48.796;9.930;2024-03-08T06:35:20;34.15;;;16.85;;
36205;SDS011;22242;48.796;9.930;2024-03-08T06:37:47;37.55;;;16.88;;
36205;SDS011;22242;48.796;9.930;2024-03-08T06:40:15;35.38;;;16.88;;
36205;SDS011;22242;48.796;9.930;2024-03-08T06:42:42;31.00;;;16.08;;
36205;SDS011;22242;48.796;9.930;2024-03-08T06:45:09;33.78;;;17.60;;
36205;SDS011;22242;48.796;9.930;2024-03-08T06:47:37;33.65;;;16.92;;
36205;SDS011;22242;48.796;9.930;2024-03-08T06:50:07;34.20;;;16.30;;
36205;SDS011;22242;48.796;9.930;2024-03-08T06:52:34;34.08;;;16.20;;
36205;SDS011;22242;48.796;9.930;2024-03-08T06:55:01;32.80;;;17.48;;
36205;SDS011;22242;48.796;9.930;2024-03-08T06:57:31;32.33;;;16.77;;
36205;SDS011;22242;48.796;9.930;2024-03-08T06:59:58;30.40;;;15.65;;
36205;SDS011;22242;48.796;9.930;2024-03-08T07:02:26;30.98;;;16.63;;
36205;SDS011;22242;48.796;9.930;2024-03-08T07:04:53;33.88;;;16.10;;
36205;SDS011;22242;48.796;9.930;2024-03-08T07:07:21;30.88;;;15.35;;
36205;SDS011;22242;48.796;9.930;2024-03-08T07:09:48;33.55;;;15.93;;
36205;SDS011;22242;48.796;9.930;2024-03-08T07:12:15;32.63;;;17.00;;
36205;SDS011;22242;48.796;9.930;2024-03-08T07:14:44;30.85;;;16.20;;
36205;SDS011;22242;48.796;9.930;2024-03-08T07:17:11;34.03;;;17.17;;
36205;SDS011;22242;48.796;9.930;2024-03-08T07:19:38;30.55;;;15.95;;
36205;SDS011;22242;48.796;9.930;2024-03-08T07:22:05;32.10;;;16.58;;
36205;SDS011;22242;48.796;9.930;2024-03-08T07:24:34;32.60;;;16.52;;
36205;SDS011;22242;48.796;9.930;2024-03-08T07:27:21;38.40;;;16.48;;
36205;SDS011;22242;48.796;9.930;2024-03-08T07:29:49;37.60;;;17.55;;
36205;SDS011;22242;48.796;9.930;2024-03-08T07:32:16;34.50;;;17.23;;
36205;SDS011;22242;48.796;9.930;2024-03-08T07:34:46;31.17;;;16.02;;
36205;SDS011;22242;48.796;9.930;2024-03-08T07:37:15;39.80;;;16.73;;
36205;SDS011;22242;48.796;9.930;2024-03-08T07:39:42;34.95;;;15.55;;
36205;SDS011;22242;48.796;9.930;2024-03-08T07:42:09;35.58;;;17.95;;
36205;SDS011;22242;48.796;9.930;2024-03-08T07:44:36;37.45;;;16.75;;
36205;SDS011;22242;48.796;9.930;2024-03-08T07:47:05;36.10;;;17.10;;
36205;SDS011;22242;48.796;9.930;2024-03-08T07:49:34;34.33;;;16.90;;
36205;SDS011;22242;48.796;9.930;2024-03-08T07:52:02;32.03;;;16.20;;
36205;SDS011;22242;48.796;9.930;2024-03-08T07:54:29;38.30;;;17.55;;
36205;SDS011;22242;48.796;9.930;2024-03-08T07:56:56;36.05;;;16.50;;
36205;SDS011;22242;48.796;9.930;2024-03-08T07:59:23;33.25;;;16.27;;
36205;SDS011;22242;48.796;9.930;2024-03-08T08:01:50;35.15;;;16.33;;
36205;SDS011;22242;48.796;9.930;2024-03-08T08:04:18;31.48;;;16.60;;
36205;SDS011;22242;48.796;9.930;2024-03-08T08:06:49;37.60;;;17.20;;
36205;SDS011;22242;48.796;9.930;2024-03-08T08:09:16;37.08;;;16.83;;
36205;SDS011;22242;48.796;9.930;2024-03-08T08:11:53;35.40;;;16.65;;
36205;SDS011;22242;48.796;9.930;2024-03-08T08:14:20;36.78;;;18.05;;
36205;SDS011;22242;48.796;9.930;2024-03-08T08:16:47;41.17;;;18.17;;
36205;SDS011;22242;48.796;9.930;2024-03-08T08:19:18;34.28;;;16.85;;
36205;SDS011;22242;48.796;9.930;2024-03-08T08:21:45;40.00;;;18.45;;
36205;SDS011;22242;48.796;9.930;2024-03-08T08:24:12;41.47;;;17.67;;
36205;SDS011;22242;48.796;9.930;2024-03-08T08:26:39;39.55;;;17.73;;
36205;SDS011;22242;48.796;9.930;2024-03-08T08:29:06;35.95;;;17.77;;
36205;SDS011;22242;48.796;9.930;2024-03-08T08:31:33;33.05;;;16.40;;
36205;SDS011;22242;48.796;9.930;2024-03-08T08:34:00;37.63;;;18.33;;
36205;SDS011;22242;48.796;9.930;2024-03-08T08:36:29;37.22;;;16.27;;
36205;SDS011;22242;48.796;9.930;2024-03-08T08:38:56;34.97;;;16.30;;
36205;SDS011;22242;48.796;9.930;2024-03-08T08:41:24;37.97;;;17.90;;
36205;SDS011;22242;48.796;9.930;2024-03-08T08:43:52;38.17;;;17.73;;
36205;SDS011;22242;48.796;9.930;2024-03-08T08:46:19;38.25;;;17.42;;
36205;SDS011;22242;48.796;9.930;2024-03-08T08:48:46;35.45;;;17.23;;
36205;SDS011;22242;48.796;9.930;2024-03-08T08:51:13;37.58;;;18.42;;
36205;SDS011;22242;48.796;9.930;2024-03-08T08:53:42;35.00;;;16.60;;
36205;SDS011;22242;48.796;9.930;2024-03-08T08:56:10;37.10;;;16.85;;
36205;SDS011;22242;48.796;9.930;2024-03-08T08:58:38;38.53;;;18.17;;
36205;SDS011;22242;48.796;9.930;2024-03-08T09:01:05;40.80;;;18.38;;
36205;SDS011;22242;48.796;9.930;2024-03-08T09:03:33;35.47;;;16.85;;
36205;SDS011;22242;48.796;9.930;2024-03-08T09:06:01;37.55;;;16.20;;
36205;SDS011;22242;48.796;9.930;2024-03-08T09:08:29;32.58;;;16.25;;
36205;SDS011;22242;48.796;9.930;2024-03-08T09:10:57;35.25;;;17.08;;
36205;SDS011;22242;48.796;9.930;2024-03-08T09:13:25;34.08;;;16.98;;
36205;SDS011;22242;48.796;9.930;2024-03-08T09:15:52;34.13;;;17.08;;
36205;SDS011;22242;48.796;9.930;2024-03-08T09:18:18;33.35;;;16.80;;
36205;SDS011;22242;48.796;9.930;2024-03-08T09:20:45;35.83;;;17.42;;
36205;SDS011;22242;48.796;9.930;2024-03-08T09:23:12;35.95;;;18.55;;
36205;SDS011;22242;48.796;9.930;2024-03-08T09:25:40;32.40;;;16.65;;
36205;SDS011;22242;48.796;9.930;2024-03-08T09:28:08;31.70;;;16.35;;
36205;SDS011;22242;48.796;9.930;2024-03-08T09:30:37;27.58;;;15.45;;
36205;SDS011;22242;48.796;9.930;2024-03-08T09:33:04;30.45;;;16.40;;
36205;SDS011;22242;48.796;9.930;2024-03-08T09:35:31;28.75;;;15.30;;
36205;SDS011;22242;48.796;9.930;2024-03-08T09:37:57;27.30;;;14.73;;
36205;SDS011;22242;48.796;9.930;2024-03-08T09:40:24;30.30;;;15.85;;
36205;SDS011;22242;48.796;9.930;2024-03-08T09:42:52;28.20;;;16.27;;
36205;SDS011;22242;48.796;9.930;2024-03-08T09:45:21;26.27;;;16.42;;
36205;SDS011;22242;48.796;9.930;2024-03-08T09:47:50;27.33;;;15.32;;
36205;SDS011;22242;48.796;9.930;2024-03-08T09:50:18;27.67;;;16.05;;
36205;SDS011;22242;48.796;9.930;2024-03-08T09:52:46;23.08;;;14.48;;
36205;SDS011;22242;48.796;9.930;2024-03-08T09:55:14;25.55;;;15.73;;
36205;SDS011;22242;48.796;9.930;2024-03-08T09:57:43;29.33;;;16.70;;
36205;SDS011;22242;48.796;9.930;2024-03-08T10:00:33;24.48;;;15.32;;
36205;SDS011;22242;48.796;9.930;2024-03-08T10:03:00;21.98;;;14.68;;
36205;SDS011;22242;48.796;9.930;2024-03-08T10:05:28;23.00;;;15.32;;
36205;SDS011;22242;48.796;9.930;2024-03-08T10:07:58;22.80;;;15.93;;
36205;SDS011;22242;48.796;9.930;2024-03-08T10:10:24;23.55;;;16.23;;
36205;SDS011;22242;48.796;9.930;2024-03-08T10:12:51;23.27;;;15.45;;
36205;SDS011;22242;48.796;9.930;2024-03-08T10:15:19;23.85;;;15.90;;
36205;SDS011;22242;48.796;9.930;2024-03-08T10:17:47;24.65;;;15.93;;
36205;SDS011;22242;48.796;9.930;2024-03-08T10:20:14;28.05;;;18.58;;
36205;SDS011;22242;48.796;9.930;2024-03-08T10:22:42;27.23;;;16.90;;
36205;SDS011;22242;48.796;9.930;2024-03-08T10:25:09;26.98;;;16.27;;
36205;SDS011;22242;48.796;9.930;2024-03-08T10:27:37;26.33;;;16.13;;
36205;SDS011;22242;48.796;9.930;2024-03-08T10:30:06;25.67;;;17.00;;
36205;SDS011;22242;48.796;9.930;2024-03-08T10:32:37;27.70;;;16.73;;
36205;SDS011;22242;48.796;9.930;2024-03-08T10:35:08;28.70;;;15.73;;
36205;SDS011;22242;48.796;9.930;2024-03-08T10:37:36;23.65;;;14.98;;
36205;SDS011;22242;48.796;9.930;2024-03-08T10:40:12;26.42;;;16.27;;
36205;SDS011;22242;48.796;9.930;2024-03-08T10:42:46;26.55;;;14.45;;
36205;SDS011;22242;48.796;9.930;2024-03-08T10:45:19;25.60;;;14.60;;
36205;SDS011;22242;48.796;9.930;2024-03-08T10:47:58;26.02;;;15.57;;
36205;SDS011;22242;48.796;9.930;2024-03-08T10:50:37;26.10;;;15.57;;
36205;SDS011;22242;48.796;9.930;2024-03-08T10:53:06;27.98;;;15.95;;
36205;SDS011;22242;48.796;9.930;2024-03-08T10:55:33;28.42;;;17.95;;
36205;SDS011;22242;48.796;9.930;2024-03-08T10:58:02;24.70;;;16.30;;
36205;SDS011;22242;48.796;9.930;2024-03-08T11:00:29;24.92;;;16.67;;
36205;SDS011;22242;48.796;9.930;2024-03-08T11:02:57;22.73;;;14.73;;
36205;SDS011;22242;48.796;9.930;2024-03-08T11:05:31;23.88;;;15.93;;
36205;SDS011;22242;48.796;9.930;2024-03-08T11:08:05;22.83;;;15.43;;
36205;SDS011;22242;48.796;9.930;2024-03-08T11:10:47;27.00;;;16.10;;
36205;SDS011;22242;48.796;9.930;2024-03-08T11:13:32;21.33;;;15.55;;
36205;SDS011;22242;48.796;9.930;2024-03-08T11:15:59;24.50;;;16.03;;
36205;SDS011;22242;48.796;9.930;2024-03-08T11:18:26;25.50;;;17.20;;
36205;SDS011;22242;48.796;9.930;2024-03-08T11:20:53;23.60;;;15.10;;
36205;SDS011;22242;48.796;9.930;2024-03-08T11:23:23;23.55;;;14.52;;
36205;SDS011;22242;48.796;9.930;2024-03-08T11:25:51;23.48;;;14.85;;
36205;SDS011;22242;48.796;9.930;2024-03-08T11:28:19;24.35;;;14.88;;
36205;SDS011;22242;48.796;9.930;2024-03-08T11:30:47;24.15;;;15.90;;
36205;SDS011;22242;48.796;9.930;2024-03-08T11:33:54;25.90;;;16.40;;
36205;SDS011;22242;48.796;9.930;2024-03-08T11:36:23;25.05;;;15.48;;
36205;SDS011;22242;48.796;9.930;2024-03-08T11:38:52;23.67;;;15.43;;
36205;SDS011;22242;48.796;9.930;2024-03-08T11:41:21;24.00;;;14.50;;
36205;SDS011;22242;48.796;9.930;2024-03-08T11:43:49;24.80;;;14.55;;
36205;SDS011;22242;48.796;9.930;2024-03-08T11:46:31;23.48;;;14.13;;
36205;SDS011;22242;48.796;9.930;2024-03-08T11:48:59;24.45;;;14.80;;
36205;SDS011;22242;48.796;9.930;2024-03-08T11:51:27;23.10;;;14.55;;
36205;SDS011;22242;48.796;9.930;2024-03-08T11:53:56;27.42;;;16.13;;
36205;SDS011;22242;48.796;9.930;2024-03-08T11:56:24;24.15;;;14.45;;
36205;SDS011;22242;48.796;9.930;2024-03-08T11:58:52;26.45;;;15.10;;
36205;SDS011;22242;48.796;9.930;2024-03-08T12:01:21;31.13;;;16.45;;
36205;SDS011;22242;48.796;9.930;2024-03-08T12:03:52;29.88;;;15.75;;
36205;SDS011;22242;48.796;9.930;2024-03-08T12:06:19;26.85;;;14.88;;
36205;SDS011;22242;48.796;9.930;2024-03-08T12:08:46;27.00;;;14.75;;
36205;SDS011;22242;48.796;9.930;2024-03-08T12:11:15;27.63;;;14.85;;
36205;SDS011;22242;48.796;9.930;2024-03-08T12:13:44;26.08;;;15.20;;
36205;SDS011;22242;48.796;9.930;2024-03-08T12:16:12;29.15;;;16.10;;
36205;SDS011;22242;48.796;9.930;2024-03-08T12:18:39;30.02;;;17.88;;
36205;SDS011;22242;48.796;9.930;2024-03-08T12:21:06;27.40;;;14.40;;
36205;SDS011;22242;48.796;9.930;2024-03-08T12:23:33;31.25;;;17.52;;
36205;SDS011;22242;48.796;9.930;2024-03-08T12:26:09;30.52;;;16.00;;
36205;SDS011;22242;48.796;9.930;2024-03-08T12:28:39;28.38;;;15.60;;
36205;SDS011;22242;48.796;9.930;2024-03-08T12:31:07;27.88;;;15.27;;
36205;SDS011;22242;48.796;9.930;2024-03-08T12:33:36;27.58;;;15.45;;
36205;SDS011;22242;48.796;9.930;2024-03-08T12:36:03;27.15;;;15.13;;
36205;SDS011;22242;48.796;9.930;2024-03-08T12:38:32;25.65;;;14.80;;
36205;SDS011;22242;48.796;9.930;2024-03-08T12:41:01;28.98;;;15.85;;
36205;SDS011;22242;48.796;9.930;2024-03-08T12:43:28;27.27;;;14.52;;
36205;SDS011;22242;48.796;9.930;2024-03-08T12:45:56;29.50;;;16.60;;
36205;SDS011;22242;48.796;9.930;2024-03-08T12:48:23;27.05;;;15.45;;
36205;SDS011;22242;48.796;9.930;2024-03-08T12:50:50;25.65;;;14.35;;
36205;SDS011;22242;48.796;9.930;2024-03-08T12:53:18;26.52;;;15.00;;
36205;SDS011;22242;48.796;9.930;2024-03-08T12:55:45;28.48;;;15.00;;
36205;SDS011;22242;48.796;9.930;2024-03-08T12:58:11;28.95;;;15.88;;
36205;SDS011;22242;48.796;9.930;2024-03-08T13:00:38;27.30;;;15.30;;
36205;SDS011;22242;48.796;9.930;2024-03-08T13:03:09;25.35;;;14.70;;
36205;SDS011;22242;48.796;9.930;2024-03-08T13:05:36;29.20;;;15.48;;
36205;SDS011;22242;48.796;9.930;2024-03-08T13:08:05;25.88;;;14.82;;
36205;SDS011;22242;48.796;9.930;2024-03-08T13:10:37;27.52;;;15.13;;
36205;SDS011;22242;48.796;9.930;2024-03-08T13:13:04;26.40;;;15.20;;
36205;SDS011;22242;48.796;9.930;2024-03-08T13:15:31;29.20;;;15.57;;
36205;SDS011;22242;48.796;9.930;2024-03-08T13:17:58;25.15;;;14.18;;
36205;SDS011;22242;48.796;9.930;2024-03-08T13:20:27;26.17;;;14.70;;
36205;SDS011;22242;48.796;9.930;2024-03-08T13:22:54;25.67;;;13.43;;
36205;SDS011;22242;48.796;9.930;2024-03-08T13:25:22;25.63;;;13.63;;
36205;SDS011;22242;48.796;9.930;2024-03-08T13:27:49;25.70;;;13.27;;
36205;SDS011;22242;48.796;9.930;2024-03-08T13:30:16;23.88;;;13.60;;
36205;SDS011;22242;48.796;9.930;2024-03-08T13:32:43;24.65;;;13.63;;
36205;SDS011;22242;48.796;9.930;2024-03-08T13:35:10;26.98;;;14.40;;
36205;SDS011;22242;48.796;9.930;2024-03-08T13:37:40;26.13;;;13.82;;
36205;SDS011;22242;48.796;9.930;2024-03-08T13:40:07;24.42;;;13.63;;
36205;SDS011;22242;48.796;9.930;2024-03-08T13:42:38;26.08;;;14.50;;
36205;SDS011;22242;48.796;9.930;2024-03-08T13:45:06;27.95;;;15.40;;
36205;SDS011;22242;48.796;9.930;2024-03-08T13:47:36;27.63;;;15.25;;
36205;SDS011;22242;48.796;9.930;2024-03-08T13:50:05;31.38;;;15.82;;
36205;SDS011;22242;48.796;9.930;2024-03-08T13:52:32;27.48;;;14.32;;
36205;SDS011;22242;48.796;9.930;2024-03-08T13:55:01;30.27;;;15.65;;
36205;SDS011;22242;48.796;9.930;2024-03-08T13:57:27;30.38;;;15.75;;
36205;SDS011;22242;48.796;9.930;2024-03-08T13:59:54;26.92;;;14.80;;
36205;SDS011;22242;48.796;9.930;2024-03-08T14:02:21;27.45;;;14.95;;
36205;SDS011;22242;48.796;9.930;2024-03-08T14:04:53;27.02;;;15.20;;
36205;SDS011;22242;48.796;9.930;2024-03-08T14:07:19;29.10;;;14.82;;
36205;SDS011;22242;48.796;9.930;2024-03-08T14:09:48;31.50;;;15.13;;
36205;SDS011;22242;48.796;9.930;2024-03-08T14:12:19;27.52;;;14.57;;
36205;SDS011;22242;48.796;9.930;2024-03-08T14:14:46;26.70;;;14.63;;
36205;SDS011;22242;48.796;9.930;2024-03-08T14:17:13;25.67;;;13.55;;
36205;SDS011;22242;48.796;9.930;2024-03-08T14:19:42;35.38;;;18.60;;
36205;SDS011;22242;48.796;9.930;2024-03-08T14:22:09;28.90;;;14.68;;
36205;SDS011;22242;48.796;9.930;2024-03-08T14:24:39;29.30;;;16.65;;
36205;SDS011;22242;48.796;9.930;2024-03-08T14:27:07;31.65;;;14.98;;